Time;durP1;ratioP1;P1;durP2;ratioP2;P2;SDS_P1;SDS_P2;PMS_P1;PMS_P2;Temp;Humidity;BMP_temperature;BMP_pressure;BME280_temperature;BME280_humidity;BME280_pressure;Samples;Min_cycle;Max_cycle;Signal;HPM_P1;HPM_P2
2022/06/15 00:01:19;;;;;;;3.97;1.60;;;;;;;16.87;46.97;100240.03;4991294;28;20060;-61
2022/06/15 00:03:46;;;;;;;4.93;1.52;;;;;;;16.88;46.00;100240.84;4991017;28;20050;-61
2022/06/15 00:06:26;;;;;;;5.32;1.63;;;;;;;16.83;47.08;100248.34;4974319;28;20503;-61
2022/06/15 00:08:56;;;;;;;5.53;1.52;;;;;;;16.84;46.69;100242.06;4991054;28;20545;-60
2022/06/15 00:11:29;;;;;;;3.20;1.60;;;;;;;16.82;46.36;100228.03;4991174;28;20054;-60
2022/06/15 00:14:04;;;;;;;5.65;1.77;;;;;;;16.80;46.48;100230.81;4990099;28;20073;-62
2022/06/15 00:16:31;;;;;;;4.35;1.38;;;;;;;16.77;46.31;100234.56;4990956;28;20133;-60
2022/06/15 00:18:58;;;;;;;6.43;1.77;;;;;;;16.74;46.50;100232.13;4991299;28;20422;-61
2022/06/15 00:21:25;;;;;;;4.68;2.00;;;;;;;16.71;46.57;100235.00;4990945;28;20046;-61
2022/06/15 00:23:51;;;;;;;4.47;1.67;;;;;;;16.68;46.86;100232.59;4991415;28;20054;-60
2022/06/15 00:26:18;;;;;;;6.15;1.80;;;;;;;16.66;46.79;100231.84;4990884;28;20461;-61
2022/06/15 00:28:45;;;;;;;4.75;1.70;;;;;;;16.63;47.06;100232.94;4991015;28;20054;-60
2022/06/15 00:31:11;;;;;;;4.85;1.77;;;;;;;16.62;47.07;100225.06;4990877;28;20050;-61
2022/06/15 00:33:38;;;;;;;3.15;1.60;;;;;;;16.59;46.93;100230.63;4991145;28;20054;-61
2022/06/15 00:36:11;;;;;;;4.22;1.73;;;;;;;16.53;47.74;100232.75;4990706;28;20062;-62
2022/06/15 00:38:41;;;;;;;6.47;1.70;;;;;;;16.51;47.35;100229.38;4973915;28;20483;-62
2022/06/15 00:41:11;;;;;;;4.72;1.92;;;;;;;16.46;47.61;100226.22;4973431;28;20046;-60
2022/06/15 00:43:44;;;;;;;4.20;1.80;;;;;;;16.41;48.36;100221.25;4991553;28;20523;-60
2022/06/15 00:46:22;;;;;;;;;;;;;;;16.41;46.15;100221.25;4973983;28;20054;-61
2022/06/15 00:48:53;;;;;;;4.72;1.75;;;;;;;16.42;47.15;100220.28;4990912;28;19988;-62
2022/06/15 00:51:21;;;;;;;5.20;1.58;;;;;;;16.37;47.07;100214.47;4990570;28;20116;-63
2022/06/15 00:53:47;;;;;;;3.63;1.63;;;;;;;16.34;47.17;100221.81;4991123;28;20042;-60
2022/06/15 00:56:15;;;;;;;5.05;1.67;;;;;;;16.30;47.73;100230.97;4991190;28;20711;-60
2022/06/15 00:58:47;;;;;;;4.80;1.70;;;;;;;16.26;47.98;100227.72;4990566;28;20089;-61
2022/06/15 01:01:14;;;;;;;3.22;1.42;;;;;;;16.24;47.79;100226.97;4990831;28;20054;-61
2022/06/15 01:03:41;;;;;;;4.38;1.58;;;;;;;16.22;47.61;100229.72;4990381;28;20548;-62
2022/06/15 01:06:46;;;;;;;4.35;1.58;;;;;;;16.18;48.02;100227.44;4990915;28;20468;-61
2022/06/15 01:09:20;;;;;;;6.38;1.85;;;;;;;16.24;47.81;100233.13;4960233;28;20088;-61
2022/06/15 01:12:02;;;;;;;5.90;1.65;;;;;;;16.22;48.77;100216.44;4991070;28;20046;-60
2022/06/15 01:14:47;;;;;;;4.65;1.55;;;;;;;16.22;48.79;100219.09;4990633;28;20057;-61
2022/06/15 01:17:31;;;;;;;5.47;1.88;;;;;;;16.20;48.54;100213.06;4990990;28;20514;-60
2022/06/15 01:20:37;;;;;;;4.30;1.63;;;;;;;16.19;48.28;100207.88;4990012;28;20043;-60
2022/06/15 01:23:29;;;;;;;5.35;1.60;;;;;;;16.16;48.83;100203.63;4975366;28;20053;-61
2022/06/15 01:26:17;;;;;;;5.40;1.85;;;;;;;16.12;48.39;100213.59;4977121;28;20056;-62
2022/06/15 01:28:50;;;;;;;3.80;1.50;;;;;;;16.10;49.10;100210.22;4976543;28;20046;-60
2022/06/15 01:31:22;;;;;;;3.95;1.50;;;;;;;16.06;48.93;100206.09;4994181;28;20117;-61
2022/06/15 01:34:01;;;;;;;6.85;2.20;;;;;;;16.03;49.19;100208.97;4994148;28;20061;-60
2022/06/15 01:36:55;;;;;;;4.35;1.25;;;;;;;16.00;49.06;100214.53;4993931;28;20055;-62
2022/06/15 01:39:30;;;;;;;6.03;1.50;;;;;;;16.04;49.16;100217.81;4993761;28;20054;-62
2022/06/15 01:42:00;;;;;;;5.65;1.80;;;;;;;16.03;49.25;100219.59;4977060;28;20065;-61
2022/06/15 01:44:47;;;;;;;8.18;2.03;;;;;;;16.06;48.64;100205.25;4976935;28;20050;-62
2022/06/15 01:47:21;;;;;;;6.47;1.70;;;;;;;16.05;49.40;100206.22;4993631;28;20491;-61
2022/06/15 01:50:00;;;;;;;3.50;1.50;;;;;;;16.04;49.58;100204.53;4993797;28;20054;-61
2022/06/15 01:52:32;;;;;;;4.18;1.73;;;;;;;16.04;49.33;100205.38;4993672;28;20546;-60
2022/06/15 01:55:13;;;;;;;4.18;1.75;;;;;;;16.01;49.76;100194.97;4976844;28;20089;-61
2022/06/15 01:57:42;;;;;;;4.53;1.63;;;;;;;16.04;49.06;100196.56;4993322;28;20270;-62
2022/06/15 02:00:14;;;;;;;4.13;1.77;;;;;;;16.02;49.28;100191.34;4993850;28;20050;-61
2022/06/15 02:03:14;;;;;;;5.63;2.03;;;;;;;15.98;49.67;100197.84;4976208;28;20050;-61
2022/06/15 02:05:42;;;;;;;3.78;1.70;;;;;;;16.01;49.19;100198.47;4993700;28;20404;-62
2022/06/15 02:08:16;;;;;;;4.32;1.80;;;;;;;16.01;49.04;100202.94;4993107;28;20062;-62
2022/06/15 02:10:55;;;;;;;6.40;2.20;;;;;;;15.98;49.75;100203.16;4976461;28;20093;-61
2022/06/15 02:13:30;;;;;;;5.28;2.00;;;;;;;16.00;50.18;100198.59;4975705;28;20403;-61
2022/06/15 02:16:04;;;;;;;3.55;1.65;;;;;;;16.01;50.25;100195.81;4976342;28;20058;-61
2022/06/15 02:18:33;;;;;;;3.97;1.98;;;;;;;16.02;49.52;100192.22;4993004;28;20484;-61
2022/06/15 02:21:10;;;;;;;5.63;2.38;;;;;;;16.03;50.06;100190.38;4993740;28;20050;-60
2022/06/15 02:23:40;;;;;;;4.47;1.90;;;;;;;16.05;49.79;100192.94;4993172;28;20113;-60
2022/06/15 02:26:07;;;;;;;5.43;1.85;;;;;;;16.05;49.42;100185.81;4976212;28;20050;-61
2022/06/15 02:28:42;;;;;;;4.57;1.80;;;;;;;16.04;50.26;100188.59;4992600;28;20108;-61
2022/06/15 02:31:10;;;;;;;5.70;2.03;;;;;;;16.06;49.50;100186.66;4975784;28;20096;-61
2022/06/15 02:33:44;;;;;;;6.05;2.08;;;;;;;16.05;49.84;100190.28;4992529;28;20411;-61
2022/06/15 02:36:11;;;;;;;5.60;1.80;;;;;;;16.04;49.64;100184.16;4993383;28;20058;-62
2022/06/15 02:38:37;;;;;;;8.35;2.40;;;;;;;16.04;49.76;100188.59;4992568;28;20198;-61
2022/06/15 02:41:04;;;;;;;4.40;1.90;;;;;;;16.02;49.64;100186.91;4992930;28;20101;-60
2022/06/15 02:43:32;;;;;;;6.57;1.98;;;;;;;16.01;49.92;100193.16;4992796;28;20054;-65
2022/06/15 02:46:01;;;;;;;4.75;2.08;;;;;;;16.01;50.02;100189.66;4975636;28;20105;-60
2022/06/15 02:48:33;;;;;;;4.60;2.22;;;;;;;16.00;49.79;100180.00;4976138;28;20046;-60
2022/06/15 02:51:10;;;;;;;6.05;2.20;;;;;;;15.97;50.78;100182.88;4975208;28;20108;-61
2022/06/15 02:53:39;;;;;;;4.82;2.28;;;;;;;15.97;49.84;100177.56;4975779;28;20054;-61
2022/06/15 02:56:08;;;;;;;6.70;2.00;;;;;;;15.94;50.03;100170.69;4992347;28;20050;-60
2022/06/15 02:58:39;;;;;;;8.18;2.50;;;;;;;15.92;50.65;100167.25;4991477;28;20108;-61
2022/06/15 03:01:06;;;;;;;6.63;2.50;;;;;;;15.92;50.19;100169.91;4992462;28;20053;-61
2022/06/15 03:03:33;;;;;;;4.75;2.55;;;;;;;15.89;50.17;100172.81;4992856;28;20046;-60
2022/06/15 03:06:00;;;;;;;4.65;2.28;;;;;;;15.86;50.11;100165.88;4992168;28;20046;-61
2022/06/15 03:08:27;;;;;;;4.00;2.33;;;;;;;15.82;49.95;100169.75;4992313;28;20054;-61
2022/06/15 03:10:54;;;;;;;7.80;2.88;;;;;;;15.79;50.18;100169.97;4991940;28;20058;-63
2022/06/15 03:13:21;;;;;;;6.10;2.55;;;;;;;15.74;50.48;100164.16;4975057;28;20554;-60
2022/06/15 03:15:47;;;;;;;4.10;2.60;;;;;;;15.70;50.38;100162.66;4991788;28;20557;-63
2022/06/15 03:18:14;;;;;;;4.95;2.33;;;;;;;15.66;50.37;100164.69;4992782;28;20058;-62
2022/06/15 03:20:41;;;;;;;5.28;2.53;;;;;;;15.63;50.55;100164.91;4992412;28;20054;-61
2022/06/15 03:23:08;;;;;;;6.13;2.60;;;;;;;15.59;50.77;100166.94;4974381;28;20058;-62
2022/06/15 03:25:37;;;;;;;7.18;2.47;;;;;;;15.56;51.16;100166.31;4974641;28;20116;-61
2022/06/15 03:28:04;;;;;;;8.32;2.92;;;;;;;15.55;51.01;100160.13;4990314;28;20054;-61
2022/06/15 03:30:31;;;;;;;5.95;2.70;;;;;;;15.54;51.09;100163.75;4974738;28;20042;-61
2022/06/15 03:32:58;;;;;;;4.82;2.45;;;;;;;15.53;50.97;100163.88;4991236;28;20089;-61
2022/06/15 03:35:34;;;;;;;3.63;2.30;;;;;;;15.52;50.95;100163.03;4991676;28;20309;-60
2022/06/15 03:38:02;;;;;;;4.85;2.58;;;;;;;15.50;51.07;100164.94;4990857;28;20054;-62
2022/06/15 03:40:29;;;;;;;3.50;2.15;;;;;;;15.47;51.10;100151.88;4991669;28;20450;-61
2022/06/15 03:42:56;;;;;;;5.78;2.97;;;;;;;15.44;51.25;100155.59;4991064;28;20120;-63
2022/06/15 03:45:23;;;;;;;7.57;2.53;;;;;;;15.43;51.36;100155.72;4991565;28;20050;-62
2022/06/15 03:47:50;;;;;;;6.15;2.50;;;;;;;15.40;51.30;100148.81;4990952;28;20394;-61
2022/06/15 03:50:16;;;;;;;4.88;2.50;;;;;;;15.39;51.43;100148.97;4991390;28;20069;-62
2022/06/15 03:52:43;;;;;;;4.70;2.30;;;;;;;15.38;51.51;100145.44;4991805;28;20085;-62
2022/06/15 03:55:10;;;;;;;6.32;2.60;;;;;;;15.37;51.76;100149.88;4991179;28;20418;-61
2022/06/15 03:57:36;;;;;;;4.30;2.67;;;;;;;15.37;51.88;100139.28;4991639;28;20058;-63
2022/06/15 04:00:05;;;;;;;3.30;2.00;;;;;;;15.38;52.13;100150.75;4991060;28;20112;-60
2022/06/15 04:02:32;;;;;;;6.30;2.70;;;;;;;15.40;51.81;100146.16;4974240;28;20054;-61
2022/06/15 04:04:59;;;;;;;4.63;2.33;;;;;;;15.41;51.89;100150.53;4990739;28;20473;-63
2022/06/15 04:10:13;;;;;;;7.93;2.60;;;;;;;15.44;52.11;100138.84;4990787;28;20538;-62
2022/06/15 04:12:42;;;;;;;6.63;2.55;;;;;;;15.45;51.93;100138.75;4974067;28;20050;-61
2022/06/15 04:15:09;;;;;;;8.23;2.65;;;;;;;15.45;52.18;100133.44;4990757;28;20378;-60
2022/06/15 04:17:36;;;;;;;8.10;3.00;;;;;;;15.49;52.11;100142.03;4974034;28;20054;-61
2022/06/15 04:22:50;;;;;;;5.53;2.78;;;;;;;15.53;52.37;100142.63;4991367;28;20545;-60
2022/06/15 04:25:17;;;;;;;5.88;2.67;;;;;;;15.57;52.60;100146.78;4990744;28;20054;-60
2022/06/15 04:27:43;;;;;;;5.68;2.50;;;;;;;15.60;52.49;100144.75;4991268;28;20057;-62
2022/06/15 04:30:12;;;;;;;7.28;2.78;;;;;;;15.63;52.64;100143.69;4989882;28;20050;-61
2022/06/15 04:32:38;;;;;;;9.50;2.88;;;;;;;15.66;52.39;100140.78;4990999;28;20054;-62
2022/06/15 04:35:05;;;;;;;9.40;2.80;;;;;;;15.71;52.33;100144.00;4990711;28;20144;-62
2022/06/15 04:37:32;;;;;;;4.70;2.30;;;;;;;15.74;52.36;100135.78;4991064;28;20065;-61
2022/06/15 04:39:58;;;;;;;7.35;2.65;;;;;;;15.79;52.32;100142.56;4990809;28;20061;-64
2022/06/15 04:42:25;;;;;;;10.30;3.28;;;;;;;15.81;52.44;100135.34;4990680;28;20442;-61
2022/06/15 04:44:51;;;;;;;7.68;2.80;;;;;;;15.84;52.35;100135.09;4991259;28;20055;-62
2022/06/15 04:47:18;;;;;;;6.45;2.88;;;;;;;15.87;52.40;100135.75;4990928;28;20050;-60
2022/06/15 04:49:44;;;;;;;4.47;2.75;;;;;;;15.90;52.39;100137.31;4990905;28;20054;-61
2022/06/15 04:52:11;;;;;;;3.42;2.40;;;;;;;15.94;52.30;100138.81;4990850;28;20046;-61
2022/06/15 04:54:37;;;;;;;4.45;2.50;;;;;;;15.98;52.40;100135.00;4990902;28;20050;-64
2022/06/15 04:57:05;;;;;;;6.95;2.95;;;;;;;16.00;52.17;100141.00;4992847;28;20054;-64
2022/06/15 04:59:31;;;;;;;6.07;2.67;;;;;;;16.04;52.10;100148.75;4994925;28;20399;-61
2022/06/15 05:01:58;;;;;;;5.97;2.80;;;;;;;16.07;52.08;100149.38;4994039;28;20128;-61
2022/06/15 05:04:27;;;;;;;9.07;2.70;;;;;;;16.11;52.14;100147.34;4994484;28;20060;-62
2022/06/15 05:06:54;;;;;;;4.72;2.72;;;;;;;16.14;52.13;100153.28;4993856;28;20050;-62
2022/06/15 05:09:21;;;;;;;5.20;2.58;;;;;;;16.19;52.16;100154.75;4994453;28;20494;-61
2022/06/15 05:11:48;;;;;;;6.97;2.80;;;;;;;16.23;52.02;100159.69;4994169;28;20113;-62
2022/06/15 05:14:14;;;;;;;5.68;3.00;;;;;;;16.27;52.02;100158.50;4994670;28;20046;-61
2022/06/15 05:16:41;;;;;;;5.35;2.53;;;;;;;16.31;52.16;100164.47;4994598;28;20054;-61
2022/06/15 05:19:08;;;;;;;10.68;2.50;;;;;;;16.36;52.01;100166.75;4993986;28;20050;-60
2022/06/15 05:21:43;;;;;;;8.77;3.08;;;;;;;16.38;52.40;100168.34;4994591;28;20054;-61
2022/06/15 05:24:12;;;;;;;5.07;2.85;;;;;;;16.46;51.78;100173.09;4976823;28;20051;-61
2022/06/15 05:26:39;;;;;;;6.03;2.72;;;;;;;16.49;51.77;100175.50;4976888;28;20050;-61
2022/06/15 05:29:06;;;;;;;5.65;2.67;;;;;;;16.53;51.86;100184.94;4993425;28;20384;-62
2022/06/15 05:31:37;;;;;;;7.75;2.72;;;;;;;16.57;51.77;100180.25;4994508;28;20058;-63
2022/06/15 05:34:05;;;;;;;3.55;2.30;;;;;;;16.60;52.00;100187.16;4993648;28;20062;-60
2022/06/15 05:36:35;;;;;;;5.65;2.97;;;;;;;16.63;51.91;100184.25;4994116;28;20058;-61
2022/06/15 05:39:04;;;;;;;8.23;3.00;;;;;;;16.67;51.64;100185.69;4993652;28;20058;-61
2022/06/15 05:41:30;;;;;;;6.40;2.85;;;;;;;16.71;51.73;100183.66;4976779;28;20065;-62
2022/06/15 05:44:00;;;;;;;5.63;3.15;;;;;;;16.75;51.73;100182.47;4993806;28;20475;-63
2022/06/15 05:46:30;;;;;;;4.85;2.70;;;;;;;16.79;51.45;100182.09;4977082;28;20054;-62
2022/06/15 05:48:59;;;;;;;3.80;2.45;;;;;;;16.84;51.52;100183.56;4993230;28;20086;-65
2022/06/15 05:51:26;;;;;;;5.47;2.70;;;;;;;16.89;51.35;100189.38;4992807;28;20203;-62
2022/06/15 05:53:53;;;;;;;6.38;2.83;;;;;;;16.91;51.38;100185.66;4976958;28;20109;-61
2022/06/15 05:56:20;;;;;;;7.95;3.20;;;;;;;16.98;51.15;100182.50;4993473;28;20475;-61
2022/06/15 05:58:47;;;;;;;7.60;3.17;;;;;;;17.01;51.26;100176.97;4993842;28;20282;-61
2022/06/15 06:01:23;;;;;;;5.40;3.00;;;;;;;17.03;51.70;100170.56;4993228;28;20054;-61
2022/06/15 06:03:49;;;;;;;10.55;3.47;;;;;;;17.11;51.28;100172.63;4976425;28;20061;-62
2022/06/15 06:06:16;;;;;;;6.57;3.22;;;;;;;17.16;51.30;100161.66;4993409;28;20101;-60
2022/06/15 06:08:43;;;;;;;7.53;3.15;;;;;;;17.19;51.16;100164.91;4992863;28;20050;-60
2022/06/15 06:11:09;;;;;;;6.75;3.22;;;;;;;17.24;51.38;100161.91;4992970;28;20046;-62
2022/06/15 06:13:36;;;;;;;6.70;3.10;;;;;;;17.30;51.32;100164.06;4993756;28;20105;-60
2022/06/15 06:16:03;;;;;;;7.18;3.67;;;;;;;17.34;51.13;100161.16;4992433;28;20411;-61
2022/06/15 06:18:30;;;;;;;7.68;3.60;;;;;;;17.37;51.02;100156.44;4993198;28;20461;-61
2022/06/15 06:20:56;;;;;;;10.43;3.30;;;;;;;17.42;51.17;100153.41;4993440;28;20087;-61
2022/06/15 06:23:23;;;;;;;10.70;3.80;;;;;;;17.46;51.29;100152.22;4993151;28;20057;-61
2022/06/15 06:25:52;;;;;;;6.22;3.38;;;;;;;17.51;51.44;100147.34;4993755;28;20097;-62
2022/06/15 06:28:39;;;;;;;5.80;3.53;;;;;;;17.53;51.51;100150.72;4992998;28;20101;-61
2022/06/15 06:31:09;;;;;;;5.43;3.28;;;;;;;17.63;51.37;100152.66;4976068;28;20101;-62
2022/06/15 06:33:37;;;;;;;6.30;3.10;;;;;;;17.67;51.35;100149.63;4975157;28;20046;-62
2022/06/15 06:36:07;;;;;;;18.17;3.30;;;;;;;17.74;51.62;100157.97;4993146;28;20054;-61
2022/06/15 06:38:35;;;;;;;9.50;3.38;;;;;;;17.81;51.54;100159.16;4992554;28;20061;-62
2022/06/15 06:41:02;;;;;;;4.90;2.95;;;;;;;17.87;51.48;100155.13;4992988;28;20069;-62
2022/06/15 06:43:28;;;;;;;6.10;2.90;;;;;;;17.94;51.41;100151.00;4992414;28;20054;-62
2022/06/15 06:45:55;;;;;;;6.20;3.10;;;;;;;18.02;51.53;100150.38;4993392;28;20053;-61
2022/06/15 06:48:22;;;;;;;4.15;2.40;;;;;;;18.08;51.21;100149.91;4992338;28;20069;-60
2022/06/15 06:50:48;;;;;;;7.85;2.92;;;;;;;18.17;51.20;100155.44;4992726;28;20081;-61
2022/06/15 06:53:15;;;;;;;4.05;2.75;;;;;;;18.25;50.82;100157.47;4992299;28;20454;-60
2022/06/15 06:55:41;;;;;;;5.05;3.00;;;;;;;18.32;51.05;100161.31;4992683;28;20058;-61
2022/06/15 06:58:08;;;;;;;4.70;2.78;;;;;;;18.39;50.78;100159.81;4992663;28;20054;-61
2022/06/15 07:00:36;;;;;;;6.40;2.72;;;;;;;18.47;50.93;100160.00;4993008;28;20065;-62
2022/06/15 07:03:05;;;;;;;9.82;3.47;;;;;;;18.55;50.59;100163.88;4992731;28;20124;-61
2022/06/15 07:05:34;;;;;;;7.43;2.88;;;;;;;18.62;50.32;100163.22;4992305;28;20096;-62
2022/06/15 07:08:01;;;;;;;5.40;2.90;;;;;;;18.71;50.15;100163.41;4975064;28;20046;-60
2022/06/15 07:10:28;;;;;;;8.77;3.38;;;;;;;18.80;50.43;100161.78;4991610;28;20279;-61
2022/06/15 07:12:55;;;;;;;5.35;2.53;;;;;;;18.87;50.21;100158.47;4992564;28;20548;-64
2022/06/15 07:15:22;;;;;;;8.20;2.63;;;;;;;18.95;49.82;100165.78;4991952;28;20442;-61
2022/06/15 07:17:48;;;;;;;9.48;2.85;;;;;;;19.04;50.07;100169.50;4992675;28;20510;-60
2022/06/15 07:20:15;;;;;;;7.03;2.83;;;;;;;19.13;50.28;100171.41;4990625;28;20434;-62
2022/06/15 07:22:41;;;;;;;5.55;2.72;;;;;;;19.22;50.03;100169.72;4992350;28;20050;-62
2022/06/15 07:25:08;;;;;;;5.50;2.58;;;;;;;19.31;49.62;100170.78;4991697;28;20581;-62
2022/06/15 07:27:38;;;;;;;6.70;2.67;;;;;;;19.40;49.75;100182.47;4992352;28;20050;-61
2022/06/15 07:30:07;;;;;;;6.78;2.63;;;;;;;19.51;49.56;100178.88;4991731;28;20114;-60
2022/06/15 07:32:34;;;;;;;8.15;2.83;;;;;;;19.61;49.14;100179.72;4974569;28;20581;-62
2022/06/15 07:35:00;;;;;;;7.07;2.80;;;;;;;19.72;49.24;100178.78;4991998;28;20062;-61
2022/06/15 07:37:27;;;;;;;8.75;3.05;;;;;;;19.81;49.18;100176.25;4991981;28;20120;-61
2022/06/15 07:40:14;;;;;;;5.88;2.75;;;;;;;19.91;48.97;100175.28;4991532;28;20116;-62
2022/06/15 07:42:42;;;;;;;12.80;2.42;;;;;;;20.01;49.05;100177.16;4974818;28;20054;-61
2022/06/15 07:45:09;;;;;;;9.73;2.55;;;;;;;20.10;49.35;100179.00;4974465;28;20073;-62
2022/06/15 07:50:22;;;;;;;7.45;2.70;;;;;;;20.29;48.73;100171.97;4991495;28;20054;-62
2022/06/15 07:52:58;;;;;;;5.93;2.40;;;;;;;20.40;48.32;100179.00;4991975;28;20062;-61
2022/06/15 07:55:34;;;;;;;5.22;2.50;;;;;;;20.48;47.70;100184.47;4991822;28;20054;-61
2022/06/15 07:58:01;;;;;;;6.95;2.53;;;;;;;20.58;47.85;100187.16;4991454;28;20082;-61
2022/06/15 08:00:29;;;;;;;6.13;2.28;;;;;;;20.67;47.70;100191.63;4991521;28;20058;-63
2022/06/15 08:02:58;;;;;;;7.93;2.45;;;;;;;20.76;47.81;100195.31;4991380;28;20060;-60
2022/06/15 08:05:27;;;;;;;4.57;2.50;;;;;;;20.85;47.64;100187.41;4991717;28;20190;-61
2022/06/15 08:08:06;;;;;;;5.55;2.13;;;;;;;20.95;47.42;100194.44;4991113;28;20120;-67
2022/06/15 08:10:34;;;;;;;13.63;3.03;;;;;;;21.04;47.32;100197.25;4974035;28;20042;-61
2022/06/15 08:13:01;;;;;;;6.75;2.03;;;;;;;21.13;46.93;100191.03;4990939;28;20433;-63
2022/06/15 08:15:28;;;;;;;8.25;2.45;;;;;;;21.21;47.14;100196.50;4974371;28;20042;-60
2022/06/15 08:18:00;;;;;;;4.45;2.20;;;;;;;21.32;46.64;100191.94;4990958;28;20065;-61
2022/06/15 08:20:33;;;;;;;6.22;2.22;;;;;;;21.41;46.54;100193.72;4991115;28;20108;-61
2022/06/15 08:23:13;;;;;;;5.45;2.10;;;;;;;21.53;46.10;100194.34;4990802;28;20557;-61
2022/06/15 08:25:43;;;;;;;4.72;2.13;;;;;;;21.66;46.16;100195.84;4991535;28;20553;-62
2022/06/15 08:28:11;;;;;;;5.18;2.08;;;;;;;21.75;45.93;100194.97;4989626;28;20050;-61
2022/06/15 08:30:39;;;;;;;4.75;2.15;;;;;;;21.85;45.85;100190.41;4973363;28;20058;-61
2022/06/15 08:33:08;;;;;;;4.80;2.30;;;;;;;21.94;45.42;100191.34;4990731;28;20190;-62
2022/06/15 08:35:36;;;;;;;7.90;2.35;;;;;;;22.04;45.34;100187.75;4991044;28;20438;-62
2022/06/15 08:38:10;;;;;;;6.10;2.25;;;;;;;22.11;44.82;100186.16;4989219;28;20065;-65
2022/06/15 08:40:45;;;;;;;6.85;2.53;;;;;;;22.20;44.14;100179.84;4991031;28;20495;-62
2022/06/15 08:43:20;;;;;;;4.18;2.13;;;;;;;22.26;45.49;100178.41;4990684;28;20395;-61
2022/06/15 08:45:52;;;;;;;5.57;2.13;;;;;;;22.36;44.49;100183.69;4991204;28;20395;-61
2022/06/15 08:48:37;;;;;;;10.20;2.45;;;;;;;22.41;44.43;100183.22;4973063;28;20255;-61
2022/06/15 08:51:48;;;;;;;4.65;2.28;;;;;;;22.49;44.60;100178.78;4991237;28;20054;-61
2022/06/15 08:54:28;;;;;;;5.32;2.00;;;;;;;22.60;44.25;100182.22;4930026;29;20052;-62
2022/06/15 08:57:05;;;;;;;5.57;2.10;;;;;;;22.69;44.42;100186.66;4971058;28;20081;-61
2022/06/15 08:59:46;;;;;;;4.00;1.73;;;;;;;22.76;44.32;100185.03;4990424;28;20113;-61
2022/06/15 09:02:25;;;;;;;4.60;2.13;;;;;;;22.86;43.80;100184.09;4991468;28;20050;-63
2022/06/15 09:05:02;;;;;;;32.60;3.75;;;;;;;22.95;43.32;100179.63;4990317;28;20055;-63
2022/06/15 09:07:38;;;;;;;4.55;2.20;;;;;;;23.06;43.59;100181.19;4991357;28;20058;-62
2022/06/15 09:10:32;;;;;;;18.33;2.67;;;;;;;23.13;43.57;100184.91;4990249;28;20054;-61
2022/06/15 09:13:22;;;;;;;4.68;2.10;;;;;;;23.23;43.44;100193.72;4990900;28;20455;-61
2022/06/15 09:15:57;;;;;;;6.47;2.15;;;;;;;23.34;42.99;100178.34;4990625;28;20050;-62
2022/06/15 09:18:48;;;;;;;5.18;2.33;;;;;;;23.40;43.34;100188.47;4990916;28;20594;-61
2022/06/15 09:21:30;;;;;;;7.43;2.38;;;;;;;23.51;43.54;100190.00;4990318;28;20058;-63
2022/06/15 09:24:18;;;;;;;6.53;2.22;;;;;;;23.56;43.66;100183.13;4973730;28;20478;-62
2022/06/15 09:26:49;;;;;;;3.83;1.83;;;;;;;23.69;43.03;100185.38;4973255;28;20411;-61
2022/06/15 09:29:23;;;;;;;5.97;1.95;;;;;;;23.77;42.80;100191.78;4973141;28;20051;-61
2022/06/15 09:32:14;;;;;;;5.25;2.10;;;;;;;23.82;42.79;100186.75;4972786;28;20461;-61
2022/06/15 09:34:45;;;;;;;6.53;2.35;;;;;;;23.94;42.54;100189.97;4990767;28;20487;-60
2022/06/15 09:37:17;;;;;;;7.88;2.10;;;;;;;24.01;41.73;100195.53;4972866;28;20061;-61
2022/06/15 09:39:44;;;;;;;6.20;2.10;;;;;;;24.11;42.12;100195.41;4990554;28;20112;-63
2022/06/15 09:42:21;;;;;;;6.65;1.92;;;;;;;24.16;41.53;100188.53;4990198;28;20057;-61
2022/06/15 09:45:01;;;;;;;4.63;1.50;;;;;;;24.26;40.90;100191.03;4976952;28;20046;-61
2022/06/15 09:47:34;;;;;;;3.63;1.77;;;;;;;24.38;41.96;100188.03;4976455;28;20342;-60
2022/06/15 09:50:27;;;;;;;5.47;2.10;;;;;;;24.44;41.86;100184.66;4993951;28;20055;-61
2022/06/15 09:52:55;;;;;;;;;;;;;;;24.56;42.50;100186.00;4994004;28;20073;-61
2022/06/15 09:55:28;;;;;;;4.53;2.10;;;;;;;24.71;41.45;100183.47;4994214;28;19921;-63
2022/06/15 09:57:55;;;;;;;4.15;1.80;;;;;;;24.79;41.53;100179.94;4993623;28;20046;-61
2022/06/15 10:00:22;;;;;;;5.93;2.20;;;;;;;24.89;41.82;100187.00;4993749;28;20046;-61
2022/06/15 10:03:01;;;;;;;5.47;1.83;;;;;;;24.93;41.61;100183.78;4993300;28;20061;-62
2022/06/15 10:05:33;;;;;;;11.85;2.60;;;;;;;25.03;40.46;100182.75;4993789;28;20053;-61
2022/06/15 10:08:04;;;;;;;5.60;1.80;;;;;;;25.11;40.57;100183.59;4993738;28;20553;-60
2022/06/15 10:10:52;;;;;;;4.72;1.77;;;;;;;25.18;40.39;100182.88;4993733;28;20046;-62
2022/06/15 10:13:19;;;;;;;2.47;1.42;;;;;;;25.28;40.83;100178.16;4993558;28;20055;-61
2022/06/15 10:15:59;;;;;;;6.40;1.92;;;;;;;25.32;40.33;100173.25;4993692;28;20450;-61
2022/06/15 10:18:36;;;;;;;4.60;1.80;;;;;;;25.41;39.54;100169.50;4993209;28;20057;-61
2022/06/15 10:21:16;;;;;;;7.97;2.38;;;;;;;25.49;38.44;100163.25;4993751;28;20058;-61
2022/06/15 10:23:54;;;;;;;4.35;2.28;;;;;;;25.56;39.88;100168.78;4993083;28;20055;-63
2022/06/15 10:26:35;;;;;;;8.25;2.00;;;;;;;25.66;39.01;100163.16;4993442;28;20078;-61
2022/06/15 10:29:26;;;;;;;4.38;1.70;;;;;;;25.72;39.54;100163.28;4975496;28;20057;-61
2022/06/15 10:32:08;;;;;;;7.32;1.63;;;;;;;25.86;40.30;100172.50;4993203;28;20054;-61
2022/06/15 10:34:50;;;;;;;;;;;;;;;26.00;40.56;100165.50;4993277;28;20101;-61
2022/06/15 10:37:25;;;;;;;3.53;1.77;;;;;;;26.19;39.71;100159.78;4993600;28;19922;-61
2022/06/15 10:39:55;;;;;;;7.15;1.77;;;;;;;26.33;38.81;100150.09;4992924;28;20051;-61
2022/06/15 10:42:25;;;;;;;6.78;2.25;;;;;;;26.49;39.26;100144.56;4993091;28;20540;-61
2022/06/15 10:44:55;;;;;;;4.32;1.58;;;;;;;26.70;39.08;100144.84;4992636;28;20498;-61
2022/06/15 10:47:49;;;;;;;3.17;1.85;;;;;;;26.98;37.91;100146.97;4993430;28;20552;-63
2022/06/15 10:50:23;;;;;;;5.50;2.08;;;;;;;27.45;38.17;100153.81;4992373;28;20387;-61
2022/06/15 10:53:01;;;;;;;6.78;2.38;;;;;;;27.95;37.63;100145.03;4991957;28;20058;-61
2022/06/15 11:04:22;;;;;;;5.45;1.98;;;;;;;30.47;35.10;100135.19;4993176;28;20050;-61
2022/06/15 11:06:53;;;;;;;4.22;1.77;;;;;;;30.98;33.40;100130.09;4992349;28;20050;-62
2022/06/15 11:09:30;;;;;;;4.30;1.60;;;;;;;31.42;33.00;100126.81;4992207;28;20053;-61
2022/06/15 11:12:01;;;;;;;5.15;1.60;;;;;;;31.86;32.81;100124.25;4991991;28;20054;-61
2022/06/15 11:14:32;;;;;;;5.80;1.70;;;;;;;32.23;31.83;100123.56;4992727;28;20058;-62
2022/06/15 11:20:18;;;;;;;3.85;1.40;;;;;;;33.01;30.39;100117.81;4992192;28;20057;-62
2022/06/15 11:22:49;;;;;;;5.00;1.55;;;;;;;33.33;30.86;100116.78;4992171;28;20073;-62
2022/06/15 11:25:20;;;;;;;5.80;1.52;;;;;;;33.59;30.18;100117.50;4975099;28;20066;-61
2022/06/15 11:28:02;;;;;;;7.35;1.60;;;;;;;33.81;30.02;100114.25;4991759;28;20050;-61
2022/06/15 11:30:34;;;;;;;3.95;1.20;;;;;;;34.09;29.68;100112.78;4974451;28;20137;-62
2022/06/15 11:33:13;;;;;;;;;;;;;;;34.31;32.65;100108.38;4991746;28;20050;-61
2022/06/15 11:35:44;;;;;;;2.33;1.25;;;;;;;34.68;29.67;100101.84;4992053;28;20301;-62
2022/06/15 11:38:38;;;;;;;4.20;1.65;;;;;;;34.91;30.02;100110.25;4991252;28;20518;-65
2022/06/15 11:41:22;;;;;;;4.90;1.15;;;;;;;35.17;28.68;100105.34;4991813;28;20054;-63
2022/06/15 11:43:52;;;;;;;3.50;1.58;;;;;;;35.41;27.41;100107.94;4991900;28;20287;-62
2022/06/15 11:46:43;;;;;;;5.05;1.35;;;;;;;35.55;27.49;100103.84;4992100;28;20077;-63
2022/06/15 11:49:32;;;;;;;11.57;1.27;;;;;;;35.77;26.64;100107.81;4974234;28;20061;-61
2022/06/15 11:52:24;;;;;;;3.30;1.45;;;;;;;35.92;25.92;100099.00;4991776;28;20058;-62
2022/06/15 11:55:08;;;;;;;3.17;1.10;;;;;;;36.06;26.97;100094.84;4991937;28;20050;-63
2022/06/15 11:57:41;;;;;;;2.42;1.23;;;;;;;36.20;25.37;100100.84;4991330;28;20069;-64
2022/06/15 12:00:35;;;;;;;4.35;1.50;;;;;;;36.24;26.32;100093.78;4974276;28;20502;-62
2022/06/15 12:03:36;;;;;;;3.28;1.35;;;;;;;36.32;26.63;100091.72;4991312;28;20050;-63
2022/06/15 12:06:12;;;;;;;4.70;1.50;;;;;;;36.46;25.05;100098.47;4991104;28;20081;-63
2022/06/15 12:08:51;;;;;;;4.35;1.20;;;;;;;36.59;25.16;100093.72;4989981;28;20058;-64
2022/06/15 12:14:47;;;;;;;2.08;1.02;;;;;;;36.79;25.05;100092.34;4991001;28;20046;-61